AirNav   Duncan Aviation - Near you to keep you flying
 
 438 users online  

9NC9 Meylor Field Airport
Greensboro, North Carolina, USA

GOING TO GREENSBORO?


FAA INFORMATION EFFECTIVE 07 OCTOBER 2021

Location

FAA Identifier: 9NC9
Lat/Long: 36-12-36.4880N 079-53-42.1290W
36-12.608133N 079-53.702150W
36.2101356,-79.8950358
(estimated)
Elevation: 910 ft. / 277 m (estimated)
Variation: 07W (1990)
From city: 5 miles NW of GREENSBORO, NC
Time zone: UTC -4 (UTC -5 during Standard Time)
Zip code: 27358

Airport Operations

Airport use: Private use, PERSONAL USE.
Activation date: 03/1992
Control tower: no
ARTCC: ATLANTA CENTER
FSS: RALEIGH FLIGHT SERVICE STATION
Attendance: UNATNDD
Wind indicator: yes
Segmented circle: no

Airport Communications

WX ASOS at GSO (7 nm S): 128.55 (336-393-0168)
WX AWOS-3 at SIF (14 nm N): 119.775 (336-573-3677)
WX ASOS at INT (16 nm W): PHONE 336-661-3096

Nearby radio navigation aids

VOR radial/distance  VOR name  Freq  Var
GSOr025/10.6GREENSBORO VORTAC116.2003W
LIBr333/27.6LIBERTY VORTAC113.0003W
DANr237/(34.5)DANVILLE VOR113.1006W

 
NDB name  Hdg/Dist  Freq  Var  ID
SLAMMER219/12.142307WSIF ... .. ..-.

Airport Services

Runway Information

Runway 9/27

Dimensions: 1500 x 100 ft. / 457 x 30 m
Surface: turf, in excellent condition
RUNWAY 9  RUNWAY 27
Traffic pattern: rightright
Obstructions: 50 ft. treesnone

Airport Ownership and Management from official FAA records

Ownership: Privately-owned
Owner: DEAN MEYLOR
306A MUIRS CHAPEL RD
GREENSBORO, NC 27410
Phone 336-852-2222
Manager: DEAN MEYLOR
2237 SCALESVILLE ROAD
SUMMERFIELD, NC 27358
Phone 336-643-9797
CELL: 336-207-9707

Airport Operational Statistics

Aircraft based on the field: 2
Single engine airplanes: 2
    

Additional Remarks

50 FT TREES ON APCH OF RWY 09.
FOR CD CTC ATLANTA ARTCC AT 770-210-7692.
DEPART RWY 09; LAND RWY 27

Instrument Procedures

There are no published instrument procedures at 9NC9.

Some nearby airports with instrument procedures:

KGSO - Piedmont Triad International Airport (7 nm S)
N63 - Meadow Brook Field Airport (13 nm NW)
KSIF - Rockingham County NC Shiloh Airport (14 nm N)
KINT - Smith Reynolds Airport (16 nm W)
2A5 - Causey Airport (22 nm SE)
 
Loc | Ops | Rwys | IFR | FBO | Links
Com | Nav | Svcs | Stats | Notes
Area around 9NC9 (Meylor Field Airport)
 
Road maps at: MapQuest Bing Google
 
Aerial photo
No photo
 
Sectional chart

 
Airport distance calculator
Flying to Meylor Field Airport? Find the distance to fly.

From to 9NC9

Sunrise and sunset
Times for 28-Oct-2021
 Local
(UTC-4)
 Zulu
(UTC)
Morning civil twilight07:1311:13
Sunrise07:4011:40
Sunset18:2722:27
Evening civil twilight18:5422:54

Current date and time
Zulu (UTC)  28-Oct-2021 06:20:35
Local (UTC-4)  28-Oct-2021 02:20:35
 
METAR
KGSO 
7nm S 
280554Z 26004KT 10SM FEW250 09/08 A2989 RMK AO2 SLP118 T00940078 10156 20094 53002
KSIF 
14nm N 
280555Z AUTO 00000KT 10SM CLR 06/06 A2989 RMK AO2 T00600060 10109 20058 402140042
KINT 
16nm W 
280554Z AUTO 00000KT 10SM CLR 10/07 A2990 RMK AO2 SLP119 T01000072 10150 20094 55001
TAF
KGSO 
7nm S 
280520Z 2806/2906 00000KT P6SM FEW250 FM281300 13006KT P6SM SCT030 BKN150 FM282000 10010G16KT P6SM VCSH SCT015 OVC030 FM290200 10012G20KT 5SM -SHRA SCT006 OVC015
KINT 
16nm W 
280520Z 2806/2906 00000KT P6SM FEW250 FM281300 12006KT P6SM SCT030 BKN150 FM282000 10010KT P6SM VCSH OVC015 FM290200 10012G20KT 5SM -SHRA SCT006 OVC015
NOTAMs
Click for the latest NOTAMs
NOTAMs are issued by the DoD/FAA and will open in a separate window not controlled by AirNav.

 

 
 

Would you like to see your business listed on this page?

 If your business provides an interesting product or service to pilots, flight crews, aircraft, or users of the Meylor Field Airport, you should consider listing it here.  To start the listing process, click on the button below
 
Add a business
 

Other Pages about Meylor Field Airport

Update a link
 
Copyright © AirNav, LLC. All rights reserved. Privacy Policy  Contact